Time;durP1;ratioP1;P1;durP2;ratioP2;P2;SDS_P1;SDS_P2;PMS_P1;PMS_P2;Temp;Humidity;BMP_temperature;BMP_pressure;BME280_temperature;BME280_humidity;BME280_pressure;Samples;Min_cycle;Max_cycle;Signal;HPM_P1;HPM_P2
2023/11/03 00:00:36;;;;;;;3.42;1.70;;;;;;;;;;4994173;28;20106;-81
2023/11/03 00:03:06;;;;;;;3.33;1.42;;;;;;;;;;4995238;28;20461;-81
2023/11/03 00:05:38;;;;;;;1.67;1.45;;;;;;;;;;4995281;28;20130;-83
2023/11/03 00:08:05;;;;;;;3.58;1.77;;;;;;;;;;4986094;28;20061;-81
2023/11/03 00:10:32;;;;;;;3.03;1.48;;;;;;;;;;4993887;28;20053;-80
2023/11/03 00:13:02;;;;;;;3.65;1.58;;;;;;;;;;4993718;28;20472;-83
2023/11/03 00:15:29;;;;;;;3.95;1.63;;;;;;;;;;4994555;28;20101;-81
2023/11/03 00:17:56;;;;;;;4.65;1.60;;;;;;;;;;4993794;28;20550;-83
2023/11/03 00:20:24;;;;;;;2.92;1.80;;;;;;;;;;4985418;28;20046;-81
2023/11/03 00:22:51;;;;;;;2.33;1.48;;;;;;;;;;4994715;28;20413;-82
2023/11/03 00:25:18;;;;;;;3.53;2.03;;;;;;;;;;4994429;28;20051;-81
2023/11/03 00:27:46;;;;;;;3.92;1.48;;;;;;;;;;4993367;28;20042;-81
2023/11/03 00:30:14;;;;;;;2.97;1.70;;;;;;;;;;4993210;28;20106;-81
2023/11/03 00:32:42;;;;;;;4.07;1.73;;;;;;;;;;4994098;28;20050;-80
2023/11/03 00:35:11;;;;;;;4.68;2.28;;;;;;;;;;4994374;28;20588;-80
2023/11/03 00:37:41;;;;;;;4.57;1.77;;;;;;;;;;4994190;28;20073;-82
2023/11/03 00:40:10;;;;;;;3.08;1.42;;;;;;;;;;4994255;28;20104;-81
2023/11/03 00:42:39;;;;;;;7.47;2.10;;;;;;;;;;4994069;28;20054;-81
2023/11/03 00:45:06;;;;;;;3.22;1.45;;;;;;;;;;4993883;28;20050;-81
2023/11/03 00:47:34;;;;;;;4.10;1.38;;;;;;;;;;4994076;28;20097;-80
2023/11/03 00:50:01;;;;;;;3.45;1.65;;;;;;;;;;4985709;28;20081;-81
2023/11/03 00:52:28;;;;;;;3.17;1.50;;;;;;;;;;4993967;28;20050;-80
2023/11/03 00:54:55;;;;;;;6.07;1.75;;;;;;;;;;4992273;28;20050;-80
2023/11/03 00:57:23;;;;;;;7.50;1.60;;;;;;;;;;4993573;28;20047;-81
2023/11/03 00:59:50;;;;;;;6.88;1.42;;;;;;;;;;4993558;28;20054;-80
2023/11/03 01:02:18;;;;;;;10.73;2.10;;;;;;;;;;4993665;28;20054;-80
2023/11/03 01:04:45;;;;;;;5.30;1.40;;;;;;;;;;4992476;28;20050;-80
2023/11/03 01:07:13;;;;;;;5.25;1.30;;;;;;;;;;4993556;28;20062;-81
2023/11/03 01:09:41;;;;;;;4.65;1.55;;;;;;;;;;4992275;28;20134;-81
2023/11/03 01:12:08;;;;;;;4.18;1.40;;;;;;;;;;4993408;28;20049;-82
2023/11/03 01:14:36;;;;;;;5.82;1.52;;;;;;;;;;4992106;28;20105;-82
2023/11/03 01:17:05;;;;;;;6.65;1.48;;;;;;;;;;4992308;28;20061;-81
2023/11/03 01:19:32;;;;;;;4.40;1.65;;;;;;;;;;4994137;28;20528;-82
2023/11/03 01:21:59;;;;;;;2.40;1.30;;;;;;;;;;4993543;28;20050;-81
2023/11/03 01:24:27;;;;;;;3.88;1.50;;;;;;;;;;4993296;28;20053;-81
2023/11/03 01:26:54;;;;;;;3.88;1.50;;;;;;;;;;4993449;28;20469;-81
2023/11/03 01:29:21;;;;;;;1.73;1.42;;;;;;;;;;4993298;28;20101;-81
2023/11/03 01:31:49;;;;;;;4.80;1.65;;;;;;;;;;4993040;28;20572;-81
2023/11/03 01:34:16;;;;;;;4.05;1.52;;;;;;;;;;4993178;28;20136;-82
2023/11/03 01:36:43;;;;;;;8.38;2.03;;;;;;;;;;4991904;28;20053;-82
2023/11/03 01:39:11;;;;;;;3.17;1.40;;;;;;;;;;4991887;28;20053;-82
2023/11/03 01:41:38;;;;;;;5.72;1.30;;;;;;;;;;4991912;28;20042;-82
2023/11/03 01:44:11;;;;;;;6.43;1.25;;;;;;;;;;4994443;28;20425;-82
2023/11/03 01:46:40;;;;;;;1.98;1.20;;;;;;;;;;4996921;28;20046;-81
2023/11/03 01:49:08;;;;;;;4.82;1.23;;;;;;;;;;4995865;28;20042;-82
2023/11/03 01:51:36;;;;;;;2.65;1.10;;;;;;;;;;5001350;28;20051;-84
2023/11/03 01:54:04;;;;;;;4.15;1.30;;;;;;;;;;5001285;28;20090;-82
2023/11/03 01:56:33;;;;;;;7.03;1.58;;;;;;;;;;5000104;28;20051;-83
2023/11/03 01:59:02;;;;;;;8.32;1.30;;;;;;;;;;4999377;28;20061;-83
2023/11/03 02:01:29;;;;;;;5.07;1.00;;;;;;;;;;4998922;28;20053;-83
2023/11/03 02:03:57;;;;;;;2.75;1.10;;;;;;;;;;5000080;28;20054;-82
2023/11/03 02:06:24;;;;;;;5.93;1.63;;;;;;;;;;4998682;28;20057;-83
2023/11/03 02:08:51;;;;;;;7.65;1.35;;;;;;;;;;4998497;28;20089;-81
2023/11/03 02:11:26;;;;;;;6.65;1.23;;;;;;;;;;5000039;28;20500;-82
2023/11/03 02:13:54;;;;;;;6.68;1.25;;;;;;;;;;4999870;28;20501;-82
2023/11/03 02:16:22;;;;;;;4.65;1.20;;;;;;;;;;4998218;28;20054;-82
2023/11/03 02:18:50;;;;;;;11.52;2.00;;;;;;;;;;4999345;28;20046;-82
2023/11/03 02:21:18;;;;;;;6.30;1.45;;;;;;;;;;4998328;28;20073;-82
2023/11/03 02:23:45;;;;;;;4.35;1.20;;;;;;;;;;4999310;28;20428;-82
2023/11/03 02:26:13;;;;;;;6.35;1.38;;;;;;;;;;4995345;28;20051;-81
2023/11/03 02:28:40;;;;;;;10.23;1.48;;;;;;;;;;4994069;28;20116;-82
2023/11/03 02:31:08;;;;;;;4.22;0.98;;;;;;;;;;4997230;28;20077;-82
2023/11/03 02:33:35;;;;;;;7.57;1.80;;;;;;;;;;4999212;28;20060;-83
2023/11/03 02:36:03;;;;;;;7.90;1.48;;;;;;;;;;4997213;28;20177;-82
2023/11/03 02:38:31;;;;;;;21.15;2.67;;;;;;;;;;4997479;28;20054;-82
2023/11/03 02:40:58;;;;;;;10.77;1.70;;;;;;;;;;4997063;28;20074;-81
2023/11/03 02:43:25;;;;;;;11.05;1.20;;;;;;;;;;4996955;28;20484;-82
2023/11/03 02:45:52;;;;;;;9.63;1.75;;;;;;;;;;4996095;28;20053;-81
2023/11/03 02:48:20;;;;;;;9.75;1.30;;;;;;;;;;4997998;28;20047;-82
2023/11/03 02:50:47;;;;;;;6.30;2.10;;;;;;;;;;4996456;28;20525;-82
2023/11/03 02:53:14;;;;;;;11.02;1.30;;;;;;;;;;4996561;28;20059;-83
2023/11/03 02:55:42;;;;;;;9.27;1.30;;;;;;;;;;4990501;28;20047;-82
2023/11/03 02:58:09;;;;;;;5.25;1.15;;;;;;;;;;4979047;28;20054;-82
2023/11/03 03:00:37;;;;;;;12.25;2.05;;;;;;;;;;4997138;28;20054;-81
2023/11/03 03:03:05;;;;;;;3.13;0.93;;;;;;;;;;4997095;28;20053;-81
2023/11/03 03:05:33;;;;;;;7.88;1.55;;;;;;;;;;4995133;28;20133;-82
2023/11/03 03:08:01;;;;;;;12.07;1.77;;;;;;;;;;4987123;28;20049;-81
2023/11/03 03:10:28;;;;;;;5.38;1.05;;;;;;;;;;4996332;28;20417;-82
2023/11/03 03:12:56;;;;;;;8.80;1.17;;;;;;;;;;4995499;28;20046;-81
2023/11/03 03:15:23;;;;;;;5.60;1.50;;;;;;;;;;4996528;28;20046;-82
2023/11/03 03:17:50;;;;;;;3.38;1.00;;;;;;;;;;4995918;28;20125;-83
2023/11/03 03:20:18;;;;;;;5.07;1.38;;;;;;;;;;4995058;28;20047;-83
2023/11/03 03:22:45;;;;;;;7.07;1.10;;;;;;;;;;4994841;28;20078;-80
2023/11/03 03:25:13;;;;;;;6.63;1.10;;;;;;;;;;4994336;28;20062;-83
2023/11/03 03:27:40;;;;;;;7.20;1.13;;;;;;;;;;4994783;28;20050;-81
2023/11/03 03:30:08;;;;;;;6.63;0.88;;;;;;;;;;4996042;28;20046;-82
2023/11/03 03:32:36;;;;;;;4.80;1.10;;;;;;;;;;4995471;28;20050;-83
2023/11/03 03:35:04;;;;;;;6.10;1.17;;;;;;;;;;4994450;28;20058;-81
2023/11/03 03:37:31;;;;;;;3.40;0.95;;;;;;;;;;4994076;28;20054;-80
2023/11/03 03:39:58;;;;;;;5.38;0.90;;;;;;;;;;4994268;28;20050;-81
2023/11/03 03:42:26;;;;;;;3.58;0.88;;;;;;;;;;4995571;28;20046;-81
2023/11/03 03:44:53;;;;;;;3.15;0.75;;;;;;;;;;4993802;28;20046;-81
2023/11/03 03:47:21;;;;;;;7.20;1.27;;;;;;;;;;4987835;28;20073;-82
2023/11/03 03:49:48;;;;;;;7.50;1.10;;;;;;;;;;4993736;28;20125;-81
2023/11/03 03:52:16;;;;;;;5.18;1.17;;;;;;;;;;4993732;28;20058;-81
2023/11/03 03:54:43;;;;;;;4.10;1.00;;;;;;;;;;4994639;28;20061;-84
2023/11/03 03:57:10;;;;;;;5.57;0.90;;;;;;;;;;4993982;28;20225;-81
2023/11/03 03:59:37;;;;;;;4.65;1.15;;;;;;;;;;4995045;28;20486;-82
2023/11/03 04:02:04;;;;;;;3.75;0.90;;;;;;;;;;4994573;28;20050;-81
2023/11/03 04:04:32;;;;;;;4.90;1.00;;;;;;;;;;4994617;28;20069;-83
2023/11/03 04:06:59;;;;;;;10.43;1.40;;;;;;;;;;4992969;28;20053;-82
2023/11/03 04:09:27;;;;;;;5.82;1.30;;;;;;;;;;4993298;28;20050;-81
2023/11/03 04:11:54;;;;;;;3.75;1.02;;;;;;;;;;4993396;28;20059;-82
2023/11/03 04:14:23;;;;;;;6.88;0.98;;;;;;;;;;4993364;28;20328;-84
2023/11/03 04:16:50;;;;;;;9.38;1.27;;;;;;;;;;4993445;28;20058;-81
2023/11/03 04:19:17;;;;;;;2.97;1.05;;;;;;;;;;4995076;28;20046;-82
2023/11/03 04:21:45;;;;;;;4.30;1.02;;;;;;;;;;4994523;28;20047;-83
2023/11/03 04:24:13;;;;;;;6.85;1.10;;;;;;;;;;4996838;28;20061;-81
2023/11/03 04:26:40;;;;;;;2.70;0.85;;;;;;;;;;4995181;28;20058;-82
2023/11/03 04:29:07;;;;;;;7.53;1.20;;;;;;;;;;4992825;28;20109;-81
2023/11/03 04:31:35;;;;;;;3.85;1.00;;;;;;;;;;4992633;28;20425;-82
2023/11/03 04:34:02;;;;;;;4.43;1.38;;;;;;;;;;4992650;28;20054;-80
2023/11/03 04:36:29;;;;;;;3.72;1.10;;;;;;;;;;4992782;28;20054;-81
2023/11/03 04:38:57;;;;;;;2.90;0.90;;;;;;;;;;4993714;28;20069;-82
2023/11/03 04:41:24;;;;;;;4.50;1.25;;;;;;;;;;4992478;28;20047;-82
2023/11/03 04:43:51;;;;;;;2.42;1.08;;;;;;;;;;4992544;28;20108;-81
2023/11/03 04:46:19;;;;;;;10.82;1.40;;;;;;;;;;4994176;28;20100;-81
2023/11/03 04:48:46;;;;;;;6.18;1.10;;;;;;;;;;4992519;28;20054;-82
2023/11/03 04:51:14;;;;;;;3.03;0.90;;;;;;;;;;4992654;28;20042;-82
2023/11/03 04:53:42;;;;;;;5.75;1.13;;;;;;;;;;4992699;28;20093;-82
2023/11/03 04:56:09;;;;;;;3.70;0.80;;;;;;;;;;4993577;28;20050;-81
2023/11/03 04:58:37;;;;;;;6.03;1.48;;;;;;;;;;4992030;28;20042;-80
2023/11/03 05:01:05;;;;;;;2.15;0.90;;;;;;;;;;4993226;28;20046;-82
2023/11/03 05:03:32;;;;;;;7.28;1.48;;;;;;;;;;4993582;28;20133;-82
2023/11/03 05:06:00;;;;;;;7.63;1.33;;;;;;;;;;4995042;28;20069;-81
2023/11/03 05:08:27;;;;;;;7.00;1.40;;;;;;;;;;4993538;28;20046;-82
2023/11/03 05:10:54;;;;;;;3.97;1.10;;;;;;;;;;4993311;28;20494;-83
2023/11/03 05:13:21;;;;;;;2.88;0.88;;;;;;;;;;4993307;28;20523;-83
2023/11/03 05:15:49;;;;;;;10.48;1.60;;;;;;;;;;4997909;28;20097;-81
2023/11/03 05:18:17;;;;;;;4.70;1.10;;;;;;;;;;5005354;28;20061;-82
2023/11/03 05:20:44;;;;;;;14.55;2.00;;;;;;;;;;5008537;28;20150;-84
2023/11/03 05:23:11;;;;;;;4.80;1.85;;;;;;;;;;4996547;28;20050;-82
2023/11/03 05:25:39;;;;;;;8.45;1.25;;;;;;;;;;4995612;28;20477;-82
2023/11/03 05:28:06;;;;;;;7.15;1.38;;;;;;;;;;4995350;28;20053;-81
2023/11/03 05:30:34;;;;;;;8.32;1.60;;;;;;;;;;4995881;28;20137;-82
2023/11/03 05:33:02;;;;;;;18.95;1.95;;;;;;;;;;4995205;28;20552;-81
2023/11/03 05:35:29;;;;;;;16.58;3.15;;;;;;;;;;4994986;28;20050;-82
2023/11/03 05:37:57;;;;;;;21.38;4.93;;;;;;;;;;4995232;28;20062;-83
2023/11/03 05:40:24;;;;;;;21.98;8.57;;;;;;;;;;4996556;28;20058;-82
2023/11/03 05:42:51;;;;;;;22.05;9.15;;;;;;;;;;4997017;28;20050;-83
2023/11/03 05:45:18;;;;;;;13.77;2.92;;;;;;;;;;4996870;28;20042;-82
2023/11/03 05:47:46;;;;;;;3.97;1.85;;;;;;;;;;4997359;28;20049;-83
2023/11/03 05:50:13;;;;;;;2.70;1.10;;;;;;;;;;5001704;28;20232;-81
2023/11/03 05:52:40;;;;;;;3.55;1.48;;;;;;;;;;5001913;28;20054;-82
2023/11/03 05:55:08;;;;;;;7.68;1.77;;;;;;;;;;4995748;28;20051;-82
2023/11/03 05:57:35;;;;;;;6.78;1.20;;;;;;;;;;4996853;28;20137;-83
2023/11/03 06:00:08;;;;;;;4.95;1.38;;;;;;;;;;4995042;28;20050;-82
2023/11/03 06:02:38;;;;;;;2.35;1.00;;;;;;;;;;4995000;28;20412;-82
2023/11/03 06:05:07;;;;;;;4.30;1.08;;;;;;;;;;4995371;28;20046;-82
2023/11/03 06:07:35;;;;;;;6.25;1.23;;;;;;;;;;4996558;28;20051;-82
2023/11/03 06:10:03;;;;;;;4.32;1.20;;;;;;;;;;4995212;28;20054;-82
2023/11/03 06:12:31;;;;;;;4.82;1.42;;;;;;;;;;4995866;28;20476;-82
2023/11/03 06:14:58;;;;;;;7.75;1.25;;;;;;;;;;4990892;28;20050;-82
2023/11/03 06:17:25;;;;;;;5.90;1.30;;;;;;;;;;4986535;28;20055;-82
2023/11/03 06:19:52;;;;;;;8.18;1.40;;;;;;;;;;4992875;28;20527;-81
2023/11/03 06:22:20;;;;;;;4.32;1.20;;;;;;;;;;4991714;28;20050;-81
2023/11/03 06:24:47;;;;;;;10.30;2.10;;;;;;;;;;4992449;28;20105;-81
2023/11/03 06:27:14;;;;;;;4.97;2.90;;;;;;;;;;4991797;28;20047;-81
2023/11/03 06:29:41;;;;;;;7.85;2.38;;;;;;;;;;4994362;28;20116;-82
2023/11/03 06:32:09;;;;;;;10.13;1.85;;;;;;;;;;4996368;28;20054;-81
2023/11/03 06:34:36;;;;;;;6.53;2.20;;;;;;;;;;4995550;28;20145;-81
2023/11/03 06:37:04;;;;;;;8.18;1.60;;;;;;;;;;4989012;28;20054;-83
2023/11/03 06:39:31;;;;;;;7.57;1.50;;;;;;;;;;4996017;28;20050;-82
2023/11/03 06:41:59;;;;;;;3.88;1.13;;;;;;;;;;4999063;28;20560;-82
2023/11/03 06:44:26;;;;;;;11.27;1.67;;;;;;;;;;4997391;28;20145;-82
2023/11/03 06:46:53;;;;;;;11.13;1.92;;;;;;;;;;4997099;28;20108;-81
2023/11/03 06:49:20;;;;;;;7.78;1.52;;;;;;;;;;4997267;28;20053;-82
2023/11/03 06:51:48;;;;;;;3.80;1.35;;;;;;;;;;4998378;28;20046;-82
2023/11/03 06:54:15;;;;;;;6.20;1.55;;;;;;;;;;4998434;28;20502;-82
2023/11/03 06:56:42;;;;;;;6.85;1.33;;;;;;;;;;4998074;28;20050;-82
2023/11/03 06:59:10;;;;;;;14.80;2.35;;;;;;;;;;4996986;28;20574;-82
2023/11/03 07:01:37;;;;;;;18.38;2.53;;;;;;;;;;4996899;28;20125;-82
2023/11/03 07:04:07;;;;;;;13.55;1.85;;;;;;;;;;4996909;28;20133;-82
2023/11/03 07:06:34;;;;;;;10.20;2.35;;;;;;;;;;4997719;28;20089;-82
2023/11/03 07:09:02;;;;;;;39.10;4.47;;;;;;;;;;4996124;28;20097;-82
2023/11/03 07:11:30;;;;;;;11.95;2.50;;;;;;;;;;4997892;28;20046;-82
2023/11/03 07:13:57;;;;;;;17.13;2.95;;;;;;;;;;4998573;28;20057;-83
2023/11/03 07:16:25;;;;;;;2.90;1.50;;;;;;;;;;5001848;28;20097;-82
2023/11/03 07:18:52;;;;;;;6.82;1.85;;;;;;;;;;5000858;28;20532;-83
2023/11/03 07:21:19;;;;;;;4.25;1.55;;;;;;;;;;4998727;28;20050;-82
2023/11/03 07:23:46;;;;;;;6.53;1.60;;;;;;;;;;4999134;28;20104;-82
2023/11/03 07:26:14;;;;;;;6.70;1.77;;;;;;;;;;5006331;22;20105;-82
2023/11/03 07:28:45;;;;;;;5.13;1.52;;;;;;;;;;4989629;28;20297;-82
2023/11/03 07:31:12;;;;;;;3.85;1.70;;;;;;;;;;4998762;28;20092;-82
2023/11/03 07:33:41;;;;;;;4.75;1.60;;;;;;;;;;4989297;28;20055;-81
2023/11/03 07:36:12;;;;;;;2.75;1.13;;;;;;;;;;5008895;28;20097;-82
2023/11/03 07:38:39;;;;;;;4.40;1.33;;;;;;;;;;5003828;28;20109;-82
2023/11/03 07:41:08;;;;;;;4.85;1.50;;;;;;;;;;4987952;28;20054;-82
2023/11/03 07:43:39;;;;;;;5.03;1.25;;;;;;;;;;4988992;28;20073;-82
2023/11/03 07:46:06;;;;;;;1.30;1.02;;;;;;;;;;4991914;28;20105;-81
2023/11/03 07:48:33;;;;;;;4.63;1.30;;;;;;;;;;4999254;28;20078;-82
2023/11/03 07:51:02;;;;;;;5.28;1.15;;;;;;;;;;5006877;28;20086;-82
2023/11/03 07:53:29;;;;;;;7.93;1.60;;;;;;;;;;4989687;28;20058;-82
2023/11/03 07:55:56;;;;;;;21.92;5.25;;;;;;;;;;4998916;28;20058;-81
2023/11/03 07:58:23;;;;;;;10.75;1.77;;;;;;;;;;4990398;28;20054;-81
2023/11/03 08:00:51;;;;;;;2.58;1.20;;;;;;;;;;4989980;28;20420;-82
2023/11/03 08:03:18;;;;;;;5.43;1.25;;;;;;;;;;4991556;28;20105;-82
2023/11/03 08:05:46;;;;;;;8.63;1.02;;;;;;;;;;4993526;28;20051;-81
2023/11/03 08:08:14;;;;;;;5.90;1.60;;;;;;;;;;4995424;28;20057;-82
2023/11/03 08:10:42;;;;;;;5.90;2.30;;;;;;;;;;4992150;28;20439;-82
2023/11/03 08:13:10;;;;;;;7.28;1.50;;;;;;;;;;4983571;28;20539;-80
2023/11/03 08:15:37;;;;;;;3.22;1.05;;;;;;;;;;4985278;28;20050;-82
2023/11/03 08:18:08;;;;;;;1.73;1.00;;;;;;;;;;4998352;28;20054;-81
2023/11/03 08:20:35;;;;;;;4.45;0.98;;;;;;;;;;4981906;28;20054;-81
2023/11/03 08:23:04;;;;;;;2.53;1.10;;;;;;;;;;4997497;28;20050;-82
2023/11/03 08:25:31;;;;;;;2.78;1.42;;;;;;;;;;4987388;28;20125;-82
2023/11/03 08:27:59;;;;;;;4.07;1.02;;;;;;;;;;4986057;28;20053;-80
2023/11/03 08:30:26;;;;;;;3.88;1.10;;;;;;;;;;4994376;28;20050;-81
2023/11/03 08:32:54;;;;;;;5.03;1.02;;;;;;;;;;4987807;28;20050;-80
2023/11/03 08:35:22;;;;;;;5.00;1.27;;;;;;;;;;4987303;28;20047;-83
2023/11/03 08:37:52;;;;;;;6.38;1.23;;;;;;;;;;4988299;28;20519;-81
2023/11/03 08:40:21;;;;;;;7.05;1.17;;;;;;;;;;4987575;28;20054;-82
2023/11/03 08:42:49;;;;;;;11.77;1.40;;;;;;;;;;4979621;28;20050;-83
2023/11/03 08:45:19;;;;;;;4.32;2.42;;;;;;;;;;4979866;28;20092;-82
2023/11/03 08:47:46;;;;;;;2.55;0.90;;;;;;;;;;4997389;28;20046;-81
2023/11/03 08:50:15;;;;;;;4.32;1.05;;;;;;;;;;4988421;28;20412;-82
2023/11/03 08:52:44;;;;;;;4.47;0.77;;;;;;;;;;4997075;28;20058;-82
2023/11/03 08:55:12;;;;;;;3.65;0.60;;;;;;;;;;4988338;28;20100;-80
2023/11/03 08:57:41;;;;;;;2.25;0.80;;;;;;;;;;4987852;28;20072;-82
2023/11/03 09:00:15;;;;;;;3.83;0.88;;;;;;;;;;4988424;28;20058;-82
2023/11/03 09:02:48;;;;;;;2.58;0.80;;;;;;;;;;4991163;28;20046;-82
2023/11/03 09:05:16;;;;;;;2.20;0.50;;;;;;;;;;4989772;28;20046;-82
2023/11/03 09:07:43;;;;;;;5.57;0.80;;;;;;;;;;4983516;28;20459;-81
2023/11/03 09:10:11;;;;;;;3.55;1.02;;;;;;;;;;4980100;28;20090;-82
2023/11/03 09:12:42;;;;;;;1.85;0.70;;;;;;;;;;4988143;28;20518;-82
2023/11/03 09:15:10;;;;;;;4.50;0.90;;;;;;;;;;4988138;28;20085;-81
2023/11/03 09:17:38;;;;;;;2.10;0.90;;;;;;;;;;4988224;28;20057;-81
2023/11/03 09:20:06;;;;;;;3.25;0.68;;;;;;;;;;4997629;28;20050;-83
2023/11/03 09:22:34;;;;;;;8.32;1.02;;;;;;;;;;5003747;28;20099;-82
2023/11/03 09:25:05;;;;;;;2.67;0.95;;;;;;;;;;4990688;28;20046;-82
2023/11/03 09:27:33;;;;;;;6.32;1.38;;;;;;;;;;4998472;28;20048;-81
2023/11/03 09:30:04;;;;;;;3.25;0.82;;;;;;;;;;4990169;28;20050;-82
2023/11/03 09:32:32;;;;;;;3.72;0.93;;;;;;;;;;5004862;28;20503;-82
2023/11/03 09:35:00;;;;;;;2.60;0.85;;;;;;;;;;4998305;28;20133;-82
2023/11/03 09:37:28;;;;;;;5.78;1.50;;;;;;;;;;4998888;28;20076;-82
2023/11/03 09:39:57;;;;;;;1.70;0.70;;;;;;;;;;4989801;28;20447;-83
2023/11/03 09:42:24;;;;;;;1.98;0.70;;;;;;;;;;4990356;28;20459;-82
2023/11/03 09:44:53;;;;;;;2.15;0.63;;;;;;;;;;4999996;28;20051;-83
2023/11/03 09:47:20;;;;;;;2.60;0.98;;;;;;;;;;4982213;28;20053;-81
2023/11/03 09:49:48;;;;;;;2.85;0.73;;;;;;;;;;4981822;28;20073;-81
2023/11/03 09:52:16;;;;;;;14.27;1.75;;;;;;;;;;5000373;28;20030;-80
2023/11/03 09:54:44;;;;;;;4.90;0.55;;;;;;;;;;4998192;28;20050;-82
2023/11/03 09:57:13;;;;;;;2.05;0.65;;;;;;;;;;5006716;28;20041;-82
2023/11/03 09:59:41;;;;;;;51.58;4.20;;;;;;;;;;4984085;28;20138;-81
2023/11/03 10:02:10;;;;;;;8.75;1.15;;;;;;;;;;4986790;28;20070;-83
2023/11/03 10:04:40;;;;;;;3.78;0.80;;;;;;;;;;4988404;28;20466;-82
2023/11/03 10:07:11;;;;;;;3.97;0.90;;;;;;;;;;4999875;28;20042;-82
2023/11/03 10:09:42;;;;;;;3.55;0.90;;;;;;;;;;5008661;28;20487;-83
2023/11/03 10:12:15;;;;;;;6.28;1.00;;;;;;;;;;5000180;28;20066;-82
2023/11/03 10:14:43;;;;;;;4.50;0.95;;;;;;;;;;4986120;28;20054;-82
2023/11/03 10:17:11;;;;;;;3.97;0.77;;;;;;;;;;4982748;28;20050;-82
2023/11/03 10:19:39;;;;;;;3.33;0.85;;;;;;;;;;4985074;28;20050;-82
2023/11/03 10:22:08;;;;;;;3.03;0.40;;;;;;;;;;5000464;28;20455;-84
2023/11/03 10:24:37;;;;;;;2.00;0.70;;;;;;;;;;4984908;28;20054;-82
2023/11/03 10:27:05;;;;;;;2.25;0.65;;;;;;;;;;5002270;28;20054;-82
2023/11/03 10:29:33;;;;;;;2.22;0.75;;;;;;;;;;4995074;28;20495;-81
2023/11/03 10:32:00;;;;;;;4.70;0.80;;;;;;;;;;5002742;28;20475;-83
2023/11/03 10:34:28;;;;;;;5.57;0.63;;;;;;;;;;4985133;28;20110;-83
2023/11/03 10:36:57;;;;;;;17.00;1.85;;;;;;;;;;4983330;28;20061;-81
2023/11/03 10:39:28;;;;;;;2.65;0.57;;;;;;;;;;4991527;28;20133;-83
2023/11/03 10:41:56;;;;;;;1.20;0.68;;;;;;;;;;4991835;28;20489;-83
2023/11/03 10:44:25;;;;;;;2.83;0.65;;;;;;;;;;4989910;28;20070;-83
2023/11/03 10:46:57;;;;;;;2.88;0.70;;;;;;;;;;4991281;28;20047;-82
2023/11/03 10:49:30;;;;;;;3.65;0.82;;;;;;;;;;4983598;28;20077;-82
2023/11/03 10:51:58;;;;;;;;;;;;;;;;;;4984204;28;20050;-82
2023/11/03 10:54:29;;;;;;;9.18;0.88;;;;;;;;;;4992393;28;20355;-84
2023/11/03 10:56:57;;;;;;;2.15;0.75;;;;;;;;;;5010080;28;20512;-81
2023/11/03 10:59:48;;;;;;;8.93;1.00;;;;;;;;;;4995756;28;20056;-82
2023/11/03 11:02:19;;;;;;;3.90;0.73;;;;;;;;;;5002495;28;20050;-82
2023/11/03 11:04:50;;;;;;;4.43;0.73;;;;;;;;;;5016700;28;20050;-83
2023/11/03 11:07:19;;;;;;;4.00;0.77;;;;;;;;;;5016762;28;20057;-82
2023/11/03 11:09:47;;;;;;;22.95;1.00;;;;;;;;;;4993296;28;20427;-83
2023/11/03 11:12:14;;;;;;;2.03;0.73;;;;;;;;;;4989647;28;20519;-81
2023/11/03 11:14:42;;;;;;;3.47;0.47;;;;;;;;;;4989125;28;20141;-81
2023/11/03 11:17:09;;;;;;;1.48;0.50;;;;;;;;;;4988544;28;20050;-82
2023/11/03 11:19:41;;;;;;;1.02;0.57;;;;;;;;;;4988949;28;20050;-83
2023/11/03 11:22:09;;;;;;;3.90;0.70;;;;;;;;;;4989157;28;20054;-82
2023/11/03 11:24:38;;;;;;;2.33;0.63;;;;;;;;;;4989024;28;20061;-81
2023/11/03 11:27:13;;;;;;;1.70;1.05;;;;;;;;;;4987043;28;20097;-82
2023/11/03 11:29:41;;;;;;;3.50;0.70;;;;;;;;;;4983877;28;20058;-81
2023/11/03 11:32:10;;;;;;;2.70;0.93;;;;;;;;;;4980725;28;20057;-81
2023/11/03 11:34:38;;;;;;;2.92;0.80;;;;;;;;;;4988497;28;20058;-80
2023/11/03 11:37:27;;;;;;;2.88;1.10;;;;;;;;;;4987132;28;20419;-81
2023/11/03 11:39:56;;;;;;;7.57;0.93;;;;;;;;;;4983243;28;20054;-80
2023/11/03 11:42:28;;;;;;;5.32;0.88;;;;;;;;;;5016636;28;20065;-81
2023/11/03 11:44:57;;;;;;;3.92;0.65;;;;;;;;;;4996534;28;20072;-81
2023/11/03 11:47:27;;;;;;;7.05;1.48;;;;;;;;;;4993999;28;20396;-80
2023/11/03 11:49:57;;;;;;;5.25;0.65;;;;;;;;;;4993531;28;20066;-81
2023/11/03 11:52:26;;;;;;;3.55;0.93;;;;;;;;;;4994293;28;20416;-81
2023/11/03 11:54:57;;;;;;;6.35;1.27;;;;;;;;;;4991340;28;20054;-81
2023/11/03 11:57:31;;;;;;;3.83;0.70;;;;;;;;;;4987429;28;20473;-82
2023/11/03 11:59:58;;;;;;;9.70;1.27;;;;;;;;;;4987151;28;20077;-82
2023/11/03 12:02:26;;;;;;;8.77;1.10;;;;;;;;;;4994808;28;20145;-80
2023/11/03 12:04:55;;;;;;;4.85;1.25;;;;;;;;;;4994437;28;20064;-80
2023/11/03 12:07:25;;;;;;;12.40;1.40;;;;;;;;;;5001909;28;20054;-82
2023/11/03 12:09:53;;;;;;;5.90;0.90;;;;;;;;;;4995067;28;20050;-80
2023/11/03 12:12:22;;;;;;;7.20;0.98;;;;;;;;;;4987225;28;20077;-82
2023/11/03 12:14:49;;;;;;;2.50;0.75;;;;;;;;;;4986957;28;20133;-82
2023/11/03 12:17:21;;;;;;;1.80;0.90;;;;;;;;;;4986447;28;20069;-81
2023/11/03 12:19:49;;;;;;;26.83;2.47;;;;;;;;;;4986309;28;20046;-82
2023/11/03 12:22:20;;;;;;;5.22;1.27;;;;;;;;;;5007487;28;20104;-82
2023/11/03 12:24:49;;;;;;;7.22;1.35;;;;;;;;;;4988046;28;20159;-82
2023/11/03 12:27:23;;;;;;;12.73;1.25;;;;;;;;;;4980269;28;20051;-82
2023/11/03 12:29:51;;;;;;;3.92;1.40;;;;;;;;;;4992942;28;20057;-81
2023/11/03 12:32:18;;;;;;;6.75;0.80;;;;;;;;;;4999256;28;20049;-80
2023/11/03 12:34:46;;;;;;;6.80;1.35;;;;;;;;;;5005633;28;20046;-81
2023/11/03 12:37:14;;;;;;;6.50;0.80;;;;;;;;;;4999127;28;20126;-81
2023/11/03 12:39:49;;;;;;;2.22;0.88;;;;;;;;;;4990958;28;20054;-81
2023/11/03 12:42:18;;;;;;;3.40;0.95;;;;;;;;;;4994047;28;20522;-80
2023/11/03 12:44:56;;;;;;;5.38;0.90;;;;;;;;;;4988685;28;20806;-81
2023/11/03 12:47:44;;;;;;;2.90;0.70;;;;;;;;;;4989160;28;20061;-79
2023/11/03 12:50:19;;;;;;;2.63;0.98;;;;;;;;;;4984367;28;20559;-81
2023/11/03 12:52:47;;;;;;;4.57;0.90;;;;;;;;;;4986642;28;20051;-81
2023/11/03 12:55:36;;;;;;;3.75;1.10;;;;;;;;;;4987458;28;20046;-81
2023/11/03 12:58:13;;;;;;;11.02;1.58;;;;;;;;;;4979970;28;20062;-82
2023/11/03 13:00:41;;;;;;;12.38;2.20;;;;;;;;;;4977650;28;20113;-81
2023/11/03 13:03:09;;;;;;;5.75;1.35;;;;;;;;;;4974077;28;20488;-79
2023/11/03 13:05:36;;;;;;;5.55;1.05;;;;;;;;;;4983940;28;20198;-81
2023/11/03 13:08:05;;;;;;;4.95;0.82;;;;;;;;;;4977490;28;20054;-81
2023/11/03 13:10:32;;;;;;;5.80;1.00;;;;;;;;;;4984806;28;20424;-81
2023/11/03 13:12:59;;;;;;;3.92;1.45;;;;;;;;;;4983425;28;20046;-81
2023/11/03 13:15:28;;;;;;;4.43;1.00;;;;;;;;;;4972662;28;20497;-79
2023/11/03 13:17:56;;;;;;;6.10;1.30;;;;;;;;;;4980754;28;20079;-80
2023/11/03 13:20:24;;;;;;;8.48;1.13;;;;;;;;;;4973737;28;20051;-81
2023/11/03 13:23:01;;;;;;;27.27;2.92;;;;;;;;;;4977195;28;20138;-81
2023/11/03 13:25:29;;;;;;;2.70;1.17;;;;;;;;;;4965008;28;20110;-77
2023/11/03 13:27:57;;;;;;;6.18;1.05;;;;;;;;;;4972846;28;20531;-79
2023/11/03 13:30:24;;;;;;;8.50;1.23;;;;;;;;;;4982454;28;20101;-77
2023/11/03 13:32:52;;;;;;;7.03;1.42;;;;;;;;;;4977553;28;20394;-78
2023/11/03 13:35:20;;;;;;;5.60;1.45;;;;;;;;;;4981189;28;20054;-78
2023/11/03 13:37:48;;;;;;;6.55;1.00;;;;;;;;;;4983144;28;20073;-81
2023/11/03 13:40:17;;;;;;;6.60;1.10;;;;;;;;;;4979312;28;20051;-80
2023/11/03 13:42:44;;;;;;;16.23;1.90;;;;;;;;;;4980955;28;20078;-79
2023/11/03 13:45:12;;;;;;;8.73;1.10;;;;;;;;;;4982543;28;20054;-77
2023/11/03 13:47:40;;;;;;;5.55;1.17;;;;;;;;;;4981979;28;20050;-77
2023/11/03 13:50:09;;;;;;;4.57;1.00;;;;;;;;;;4975396;28;20508;-78
2023/11/03 13:52:48;;;;;;;4.80;1.25;;;;;;;;;;4985815;28;20054;-78
2023/11/03 13:55:16;;;;;;;7.70;1.20;;;;;;;;;;4978692;28;20058;-78
2023/11/03 13:57:44;;;;;;;7.63;1.15;;;;;;;;;;4977228;28;20098;-78
2023/11/03 14:00:15;;;;;;;12.82;2.10;;;;;;;;;;4985054;28;20051;-81
2023/11/03 14:02:43;;;;;;;11.13;1.88;;;;;;;;;;4987415;28;20832;-81
2023/11/03 14:05:11;;;;;;;11.38;3.85;;;;;;;;;;4980685;28;20047;-81
2023/11/03 14:07:39;;;;;;;10.07;2.45;;;;;;;;;;4976294;28;20047;-81
2023/11/03 14:10:14;;;;;;;10.93;1.52;;;;;;;;;;4993500;28;20137;-78
2023/11/03 14:12:43;;;;;;;13.82;1.73;;;;;;;;;;4992579;28;20082;-78
2023/11/03 14:15:12;;;;;;;9.38;1.48;;;;;;;;;;4976856;28;20050;-80
2023/11/03 14:17:40;;;;;;;8.80;1.10;;;;;;;;;;4979260;28;20073;-81
2023/11/03 14:20:09;;;;;;;7.35;1.48;;;;;;;;;;4995802;28;20479;-81
2023/11/03 14:22:36;;;;;;;8.88;1.35;;;;;;;;;;4981665;28;20105;-81
2023/11/03 14:25:05;;;;;;;7.03;1.42;;;;;;;;;;4982726;28;20425;-81
2023/11/03 14:27:34;;;;;;;6.38;1.42;;;;;;;;;;4981483;28;20394;-80
2023/11/03 14:30:01;;;;;;;10.18;1.83;;;;;;;;;;4979745;28;20134;-78
2023/11/03 14:32:29;;;;;;;3.40;1.10;;;;;;;;;;4974431;28;20489;-78
2023/11/03 14:34:56;;;;;;;7.13;1.17;;;;;;;;;;4983715;28;20050;-78
2023/11/03 14:37:24;;;;;;;7.03;1.55;;;;;;;;;;4990608;28;20509;-81
2023/11/03 14:39:51;;;;;;;7.60;1.85;;;;;;;;;;4982966;28;20489;-79
2023/11/03 14:42:18;;;;;;;7.32;1.10;;;;;;;;;;4973458;28;20114;-77
2023/11/03 14:44:46;;;;;;;4.60;1.35;;;;;;;;;;4972859;28;20049;-77
2023/11/03 14:47:13;;;;;;;7.07;1.52;;;;;;;;;;4979218;28;20047;-81